Time;durP1;ratioP1;P1;durP2;ratioP2;P2;SDS_P1;SDS_P2;PMS_P1;PMS_P2;Temp;Humidity;BMP_temperature;BMP_pressure;BME280_temperature;BME280_humidity;BME280_pressure;Samples;Min_cycle;Max_cycle;Signal;HPM_P1;HPM_P2
2023/03/09 00:02:04;;;;;;;48.83;24.80;;;5.50;99.90;;;;;;4393592;28;660205;-73
2023/03/09 00:04:51;;;;;;;48.60;25.80;;;5.60;99.90;;;;;;4390692;28;658838;-73
2023/03/09 00:07:39;;;;;;;48.93;25.43;;;5.70;99.90;;;;;;4415675;28;659087;-73
2023/03/09 00:10:26;;;;;;;42.20;20.50;;;5.80;99.90;;;;;;4383702;28;658402;-73
2023/03/09 00:13:13;;;;;;;40.20;21.33;;;5.80;99.90;;;;;;4408206;28;659790;-72
2023/03/09 00:16:08;;;;;;;49.10;23.57;;;5.80;99.90;;;;;;4392571;28;658438;-72
2023/03/09 00:18:58;;;;;;;50.03;26.30;;;5.90;99.90;;;;;;4365934;28;659552;-72
2023/03/09 00:21:49;;;;;;;50.15;25.00;;;5.90;99.90;;;;;;4390666;28;658794;-72
2023/03/09 00:24:45;;;;;;;43.23;20.77;;;5.90;99.90;;;;;;4396385;28;659124;-72
2023/03/09 00:27:32;;;;;;;44.00;21.53;;;5.90;99.90;;;;;;4391568;28;659475;-72
2023/03/09 00:30:20;;;;;;;39.27;19.40;;;6.00;99.90;;;;;;4412148;28;658725;-72
2023/03/09 00:33:07;;;;;;;45.07;18.93;;;6.10;99.90;;;;;;4384042;28;659944;-72
2023/03/09 00:35:55;;;;;;;38.73;20.93;;;6.20;99.90;;;;;;4418810;28;658351;-72
2023/03/09 00:38:43;;;;;;;41.23;21.90;;;6.10;99.90;;;;;;4385491;28;659685;-72
2023/03/09 00:41:31;;;;;;;40.67;20.67;;;6.10;99.90;;;;;;4396336;28;659355;-71
2023/03/09 00:44:18;;;;;;;44.57;22.10;;;6.20;99.90;;;;;;4407625;28;659403;-71
2023/03/09 00:47:06;;;;;;;44.27;22.40;;;6.10;99.90;;;;;;4390416;28;659396;-72
2023/03/09 00:49:53;;;;;;;49.17;24.90;;;6.10;99.90;;;;;;4413739;28;659570;-72
2023/03/09 00:52:42;;;;;;;49.38;24.95;;;6.10;99.90;;;;;;4395461;28;658826;-72
2023/03/09 00:55:29;;;;;;;52.13;25.50;;;6.10;99.90;;;;;;4404071;28;658487;-72
2023/03/09 00:58:16;;;;;;;51.73;26.17;;;6.10;99.90;;;;;;4390135;28;658587;-72
2023/03/09 01:01:07;;;;;;;53.13;26.05;;;6.10;99.90;;;;;;4421155;28;659235;-72
2023/03/09 01:03:54;;;;;;;47.97;23.80;;;6.10;99.90;;;;;;4385480;28;658381;-72
2023/03/09 01:06:42;;;;;;;52.17;24.43;;;6.10;99.90;;;;;;4400335;28;658479;-72
2023/03/09 01:09:30;;;;;;;45.40;24.93;;;6.20;99.90;;;;;;4426360;28;658697;-73
2023/03/09 01:12:18;;;;;;;49.13;25.53;;;6.20;99.90;;;;;;4407922;28;659452;-72
2023/03/09 01:15:06;;;;;;;53.17;27.87;;;6.20;99.90;;;;;;4419715;28;658732;-72
2023/03/09 01:17:53;;;;;;;58.23;28.10;;;6.20;99.90;;;;;;4424958;28;659930;-72
2023/03/09 01:20:41;;;;;;;46.43;26.57;;;6.20;99.90;;;;;;4407834;28;658981;-72
2023/03/09 01:23:28;;;;;;;50.77;27.73;;;6.20;99.90;;;;;;4430928;28;659552;-72
2023/03/09 01:26:18;;;;;;;56.23;29.83;;;6.20;99.90;;;;;;4404606;28;658468;-72
2023/03/09 01:29:05;;;;;;;55.40;29.33;;;6.10;99.90;;;;;;4408148;28;658889;-72
2023/03/09 01:31:52;;;;;;;64.33;31.77;;;6.20;99.90;;;;;;4429427;28;658442;-73
2023/03/09 01:34:40;;;;;;;59.87;30.30;;;6.20;99.90;;;;;;4427742;28;658648;-72
2023/03/09 01:37:27;;;;;;;51.17;30.03;;;6.20;99.90;;;;;;4422453;28;659765;-72
2023/03/09 01:40:17;;;;;;;57.13;29.60;;;6.20;99.90;;;;;;4423846;28;658336;-73
2023/03/09 01:46:32;;;;;;;62.73;30.93;;;6.10;99.90;;;;;;4873657;27;1295991;-73
2023/03/09 01:49:26;;;;;;;69.43;33.70;;;6.10;99.90;;;;;;4405826;28;652281;-74
2023/03/09 01:52:15;;;;;;;64.37;32.70;;;6.10;99.90;;;;;;4405147;28;651596;-73
2023/03/09 01:55:04;;;;;;;59.47;30.80;;;6.10;99.90;;;;;;4404987;28;652435;-74
2023/03/09 01:57:53;;;;;;;57.67;30.57;;;6.10;99.90;;;;;;4406341;28;651555;-73
2023/03/09 02:00:41;;;;;;;56.87;29.60;;;6.10;99.90;;;;;;4409431;28;651444;-73
2023/03/09 02:03:30;;;;;;;55.23;28.07;;;6.20;99.90;;;;;;4425635;28;652907;-73
2023/03/09 02:06:20;;;;;;;55.00;27.67;;;6.10;99.90;;;;;;4399801;28;653519;-73
2023/03/09 02:09:10;;;;;;;59.70;27.97;;;6.20;99.90;;;;;;4402208;28;652544;-73
2023/03/09 02:11:58;;;;;;;68.37;32.60;;;6.10;99.90;;;;;;4401160;28;652941;-73
2023/03/09 02:14:45;;;;;;;58.47;29.20;;;6.00;99.90;;;;;;4409128;28;653886;-73
2023/03/09 02:17:32;;;;;;;56.30;26.27;;;6.00;99.90;;;;;;4426563;28;654439;-74
2023/03/09 02:20:22;;;;;;;55.43;28.00;;;6.00;99.90;;;;;;4419371;28;653822;-73
2023/03/09 02:23:14;;;;;;;54.27;26.57;;;6.00;99.90;;;;;;4421709;28;653375;-74
2023/03/09 02:26:04;;;;;;;53.67;26.93;;;6.10;99.90;;;;;;4382007;28;654364;-73
2023/03/09 02:28:52;;;;;;;52.60;26.40;;;5.90;99.90;;;;;;4397889;28;653495;-73
2023/03/09 02:31:40;;;;;;;53.90;27.07;;;6.00;99.90;;;;;;4422601;28;652966;-73
2023/03/09 02:34:27;;;;;;;46.33;24.90;;;5.90;99.90;;;;;;4427758;28;654416;-73
2023/03/09 02:37:29;;;;;;;44.50;24.57;;;5.90;99.90;;;;;;4419171;28;653171;-73
2023/03/09 02:40:18;;;;;;;52.37;26.10;;;6.00;99.90;;;;;;4366388;28;653961;-73
2023/03/09 02:43:05;;;;;;;51.07;24.37;;;6.00;99.90;;;;;;4394592;28;653552;-73
2023/03/09 02:45:54;;;;;;;47.77;24.07;;;6.00;99.90;;;;;;4421582;28;654395;-73
2023/03/09 02:48:41;;;;;;;47.80;24.97;;;6.00;99.90;;;;;;4387822;28;653535;-73
2023/03/09 02:51:29;;;;;;;51.83;27.07;;;6.10;99.90;;;;;;4413500;28;654074;-73
2023/03/09 02:54:16;;;;;;;58.47;28.67;;;6.10;99.90;;;;;;4392206;28;653303;-73
2023/03/09 02:57:03;;;;;;;60.30;27.47;;;6.10;99.90;;;;;;4403606;28;655126;-73
2023/03/09 02:59:50;;;;;;;53.73;28.63;;;6.20;99.90;;;;;;4384844;28;654051;-73
2023/03/09 03:02:39;;;;;;;56.47;28.93;;;6.20;99.90;;;;;;4410979;28;654433;-73
2023/03/09 03:05:26;;;;;;;58.07;27.93;;;6.20;99.90;;;;;;4388303;28;653695;-73
2023/03/09 03:08:13;;;;;;;51.97;28.43;;;6.10;99.90;;;;;;4398575;28;654154;-73
2023/03/09 03:11:01;;;;;;;61.50;29.83;;;6.20;99.90;;;;;;4394536;28;653226;-73
2023/03/09 03:13:48;;;;;;;56.60;30.50;;;6.10;99.90;;;;;;4402707;28;653962;-73
2023/03/09 03:16:35;;;;;;;65.77;30.57;;;6.20;99.90;;;;;;4391091;28;653894;-73
2023/03/09 03:19:24;;;;;;;60.90;31.43;;;6.20;99.90;;;;;;4403107;28;654331;-73
2023/03/09 03:22:11;;;;;;;60.30;31.57;;;6.20;99.90;;;;;;4391563;28;653312;-73
2023/03/09 03:24:58;;;;;;;62.47;31.60;;;6.20;99.90;;;;;;4416310;28;653194;-73
2023/03/09 03:27:46;;;;;;;63.60;31.00;;;6.20;99.90;;;;;;4388171;28;653696;-73
2023/03/09 03:30:33;;;;;;;57.93;30.90;;;6.20;99.90;;;;;;4402198;28;653294;-73
2023/03/09 03:33:21;;;;;;;62.27;29.57;;;6.20;99.90;;;;;;4394121;28;654322;-74
2023/03/09 03:36:10;;;;;;;50.17;28.13;;;6.30;99.90;;;;;;4415740;28;653702;-74
2023/03/09 03:38:57;;;;;;;58.33;30.50;;;6.30;99.90;;;;;;4379699;28;654045;-73
2023/03/09 03:41:44;;;;;;;64.47;31.93;;;6.30;99.90;;;;;;4401835;28;652759;-73
2023/03/09 03:44:31;;;;;;;53.43;26.07;;;6.30;99.90;;;;;;4211415;28;653635;-73
2023/03/09 03:47:19;;;;;;;57.10;27.97;;;6.30;99.90;;;;;;4230327;28;653191;-73
2023/03/09 03:50:07;;;;;;;54.80;28.13;;;6.30;99.90;;;;;;4355943;28;653183;-74
2023/03/09 03:52:56;;;;;;;59.77;29.57;;;6.30;99.90;;;;;;4416912;28;653183;-74
2023/03/09 03:55:43;;;;;;;55.60;28.33;;;6.30;99.90;;;;;;4367315;28;654257;-74
2023/03/09 03:58:31;;;;;;;51.90;27.53;;;6.30;99.90;;;;;;4400045;28;654164;-73
2023/03/09 04:01:18;;;;;;;55.57;28.67;;;6.30;99.90;;;;;;4411140;28;654206;-73
2023/03/09 04:04:05;;;;;;;44.85;23.98;;;6.40;99.90;;;;;;4377080;28;653252;-74
2023/03/09 04:06:52;;;;;;;43.53;23.30;;;6.40;99.90;;;;;;4401035;28;653532;-73
2023/03/09 04:09:42;;;;;;;46.97;25.10;;;6.30;99.90;;;;;;4403343;28;653745;-73
2023/03/09 04:12:29;;;;;;;48.45;24.75;;;6.30;99.90;;;;;;4397752;28;653717;-73
2023/03/09 04:15:16;;;;;;;46.20;25.47;;;6.30;99.90;;;;;;4388963;28;653213;-73
2023/03/09 04:18:04;;;;;;;42.50;22.10;;;6.30;99.90;;;;;;4390691;28;653602;-74
2023/03/09 04:20:51;;;;;;;298.80;30.47;;;6.40;99.90;;;;;;4385994;28;653658;-73
2023/03/09 04:23:38;;;;;;;37.13;19.90;;;6.30;99.90;;;;;;4411381;28;654923;-73
2023/03/09 04:26:27;;;;;;;44.90;20.93;;;6.30;99.90;;;;;;4373896;28;653939;-74
2023/03/09 04:29:14;;;;;;;29.87;16.47;;;6.40;99.90;;;;;;4408875;28;653372;-73
2023/03/09 04:32:01;;;;;;;30.08;16.42;;;6.40;99.90;;;;;;4368735;28;653695;-73
2023/03/09 04:34:48;;;;;;;32.53;17.47;;;6.40;99.90;;;;;;4407634;28;654671;-74
2023/03/09 04:37:36;;;;;;;30.13;15.60;;;6.50;99.90;;;;;;4387043;28;654730;-73
2023/03/09 04:40:23;;;;;;;30.10;15.43;;;6.60;99.90;;;;;;4397919;28;655548;-73
2023/03/09 04:43:12;;;;;;;26.17;14.73;;;6.60;99.90;;;;;;4381811;28;655037;-73
2023/03/09 04:45:59;;;;;;;28.47;15.73;;;6.60;99.90;;;;;;4407741;28;654374;-74
2023/03/09 04:48:46;;;;;;;22.97;13.53;;;6.60;99.90;;;;;;4387661;28;654591;-74
2023/03/09 04:51:33;;;;;;;29.37;14.50;;;6.60;99.90;;;;;;4414206;28;654444;-73
2023/03/09 04:54:20;;;;;;;26.23;14.60;;;6.60;99.90;;;;;;4387384;28;655060;-73
2023/03/09 04:57:08;;;;;;;25.40;14.43;;;6.60;99.90;;;;;;4410005;28;654736;-73
2023/03/09 04:59:57;;;;;;;38.83;16.80;;;6.60;99.90;;;;;;4396712;28;654575;-74
2023/03/09 05:02:44;;;;;;;21.60;13.30;;;6.50;99.90;;;;;;4411447;28;654565;-73
2023/03/09 05:05:31;;;;;;;22.20;12.90;;;6.50;99.90;;;;;;4389913;28;654435;-73
2023/03/09 05:08:18;;;;;;;22.40;12.80;;;6.50;99.90;;;;;;4412964;28;655442;-73
2023/03/09 05:11:06;;;;;;;19.90;11.07;;;6.50;99.90;;;;;;4389967;28;654937;-74
2023/03/09 05:13:53;;;;;;;20.73;12.90;;;6.50;99.90;;;;;;4409395;28;655723;-74
2023/03/09 05:16:42;;;;;;;22.03;12.83;;;6.50;99.90;;;;;;4390619;28;654474;-74
2023/03/09 05:19:29;;;;;;;24.13;13.67;;;6.50;99.90;;;;;;4408332;28;654421;-73
2023/03/09 05:22:17;;;;;;;25.63;14.00;;;6.40;99.90;;;;;;4390668;28;654255;-74
2023/03/09 05:25:05;;;;;;;20.67;11.53;;;6.40;99.90;;;;;;4413004;28;654449;-74
2023/03/09 05:27:52;;;;;;;22.17;11.40;;;6.40;99.90;;;;;;4375496;28;655012;-74
2023/03/09 05:30:41;;;;;;;28.60;12.90;;;6.40;99.90;;;;;;4413774;28;653963;-74
2023/03/09 05:33:30;;;;;;;20.97;11.97;;;6.50;99.90;;;;;;4385580;28;654760;-74
2023/03/09 05:36:18;;;;;;;18.47;10.93;;;6.40;99.90;;;;;;4386763;28;655694;-73
2023/03/09 05:39:05;;;;;;;16.87;10.90;;;6.40;99.90;;;;;;4394251;28;654552;-73
2023/03/09 05:41:53;;;;;;;19.83;10.57;;;6.40;99.90;;;;;;4408414;28;654888;-73
2023/03/09 05:44:40;;;;;;;18.37;10.20;;;6.50;99.90;;;;;;4389743;28;655992;-73
2023/03/09 05:47:27;;;;;;;17.10;10.37;;;6.40;99.90;;;;;;4409517;28;654442;-73
2023/03/09 05:50:17;;;;;;;17.33;10.53;;;6.50;99.90;;;;;;4404838;28;654400;-73
2023/03/09 05:53:04;;;;;;;19.50;10.73;;;6.50;99.90;;;;;;4413354;28;654635;-73
2023/03/09 05:55:52;;;;;;;21.60;11.13;;;6.50;99.90;;;;;;4392752;28;654984;-73
2023/03/09 05:58:39;;;;;;;20.07;11.63;;;6.50;99.90;;;;;;4404051;28;654283;-73
2023/03/09 06:01:27;;;;;;;19.23;11.63;;;6.60;99.90;;;;;;4387735;28;654590;-73
2023/03/09 06:04:14;;;;;;;20.80;11.73;;;6.60;99.90;;;;;;4409797;28;654078;-73
2023/03/09 06:07:03;;;;;;;22.90;11.93;;;6.70;99.90;;;;;;4375949;28;656257;-73
2023/03/09 06:09:50;;;;;;;23.00;12.80;;;6.70;99.90;;;;;;4377519;28;654713;-72
2023/03/09 06:12:38;;;;;;;25.40;14.53;;;6.80;99.90;;;;;;4397956;28;655344;-73
2023/03/09 06:15:25;;;;;;;21.00;12.10;;;6.90;99.90;;;;;;4399171;28;654510;-73
2023/03/09 06:18:12;;;;;;;25.80;12.43;;;7.10;99.90;;;;;;4409899;28;655688;-73
2023/03/09 06:21:01;;;;;;;30.60;15.90;;;7.20;99.90;;;;;;4410732;28;654145;-73
2023/03/09 06:23:53;;;;;;;61.57;18.30;;;7.30;99.90;;;;;;4406030;28;654697;-73
2023/03/09 06:26:40;;;;;;;22.93;13.03;;;7.40;99.90;;;;;;4367254;28;655838;-73
2023/03/09 06:29:28;;;;;;;26.00;14.07;;;7.40;99.90;;;;;;4402392;28;657325;-73
2023/03/09 06:32:15;;;;;;;25.83;14.23;;;7.50;99.90;;;;;;4398001;28;656397;-73
2023/03/09 06:35:02;;;;;;;26.43;15.33;;;7.70;99.90;;;;;;4410890;28;656689;-73
2023/03/09 06:37:50;;;;;;;23.57;12.97;;;7.70;99.90;;;;;;4390930;28;655131;-73
2023/03/09 06:40:39;;;;;;;33.10;20.17;;;7.80;99.90;;;;;;4410610;28;656084;-73
2023/03/09 06:43:26;;;;;;;38.57;23.47;;;7.80;99.90;;;;;;4394640;28;655693;-73
2023/03/09 06:46:13;;;;;;;46.33;28.50;;;7.90;99.90;;;;;;4409178;28;655796;-73
2023/03/09 06:49:01;;;;;;;35.57;22.33;;;8.00;99.90;;;;;;4392778;28;655446;-73
2023/03/09 06:51:48;;;;;;;43.57;26.30;;;8.10;99.90;;;;;;4412670;28;656042;-73
2023/03/09 06:54:35;;;;;;;33.13;20.27;;;8.10;99.90;;;;;;4373445;28;655626;-73
2023/03/09 06:57:24;;;;;;;33.47;20.27;;;8.20;99.90;;;;;;4408917;28;655785;-73
2023/03/09 07:00:12;;;;;;;36.00;22.50;;;8.20;99.90;;;;;;4393679;28;655395;-73
2023/03/09 07:02:59;;;;;;;35.70;21.23;;;8.30;99.90;;;;;;4409061;28;655631;-73
2023/03/09 07:05:47;;;;;;;29.37;17.63;;;8.40;99.90;;;;;;4382841;28;655341;-73
2023/03/09 07:08:34;;;;;;;31.57;19.43;;;8.50;99.90;;;;;;4415617;28;655566;-73
2023/03/09 07:11:21;;;;;;;28.20;17.80;;;8.60;99.90;;;;;;4393410;28;656138;-73
2023/03/09 07:14:10;;;;;;;29.80;16.20;;;8.70;99.90;;;;;;4415078;28;655935;-73
2023/03/09 07:16:57;;;;;;;26.93;17.20;;;8.80;99.90;;;;;;4376304;28;656168;-73
2023/03/09 07:19:45;;;;;;;33.43;18.83;;;8.70;99.90;;;;;;4416307;28;655684;-71
2023/03/09 07:22:33;;;;;;;32.60;19.43;;;8.70;99.90;;;;;;4388349;28;656712;-73
2023/03/09 07:25:20;;;;;;;33.03;16.67;;;8.80;99.90;;;;;;4398057;28;655203;-73
2023/03/09 07:28:08;;;;;;;31.67;13.27;;;8.70;99.90;;;;;;4416399;28;656480;-73
2023/03/09 07:30:57;;;;;;;38.70;16.10;;;8.50;99.90;;;;;;4394131;28;655487;-73
2023/03/09 07:33:44;;;;;;;30.17;12.90;;;8.40;99.90;;;;;;4415377;28;656173;-73
2023/03/09 07:36:31;;;;;;;37.00;13.80;;;8.50;99.90;;;;;;4397474;28;656420;-73
2023/03/09 07:39:18;;;;;;;22.70;10.98;;;8.50;99.90;;;;;;4410227;28;655603;-73
2023/03/09 07:42:06;;;;;;;18.57;10.33;;;8.50;99.90;;;;;;4395018;28;655274;-73
2023/03/09 07:44:53;;;;;;;18.53;10.60;;;8.60;99.90;;;;;;4404406;28;656210;-73
2023/03/09 07:47:42;;;;;;;16.17;10.40;;;8.60;99.90;;;;;;4380934;28;655623;-73
2023/03/09 07:50:29;;;;;;;21.77;11.93;;;8.60;99.90;;;;;;4393771;28;655084;-73
2023/03/09 07:53:16;;;;;;;24.67;12.90;;;8.70;99.90;;;;;;4371614;28;655454;-73
2023/03/09 07:56:04;;;;;;;25.03;14.03;;;8.70;99.90;;;;;;4391661;28;655656;-73
2023/03/09 07:58:52;;;;;;;25.17;14.37;;;8.60;99.90;;;;;;4378698;28;656204;-73
2023/03/09 08:01:40;;;;;;;33.30;16.73;;;8.60;99.90;;;;;;4384744;28;655497;-72
2023/03/09 08:04:30;;;;;;;32.20;18.83;;;8.50;99.90;;;;;;4399837;28;655979;-72
2023/03/09 08:07:17;;;;;;;38.53;22.03;;;8.60;99.90;;;;;;4380044;28;655728;-72
2023/03/09 08:10:05;;;;;;;43.73;22.00;;;8.50;99.90;;;;;;4391902;28;654964;-72
2023/03/09 08:12:53;;;;;;;30.10;16.40;;;8.40;99.90;;;;;;4380606;28;656493;-72
2023/03/09 08:15:40;;;;;;;27.47;16.30;;;8.40;99.90;;;;;;4389868;28;655915;-71
2023/03/09 08:18:27;;;;;;;29.70;16.73;;;8.30;99.90;;;;;;4405351;28;656593;-71
2023/03/09 08:21:17;;;;;;;29.93;17.40;;;8.20;99.90;;;;;;4402954;28;655349;-71
2023/03/09 08:24:04;;;;;;;31.63;17.43;;;8.20;99.90;;;;;;4392460;28;655857;-71
2023/03/09 08:26:51;;;;;;;30.50;18.60;;;8.20;99.90;;;;;;4382979;28;656585;-72
2023/03/09 08:29:39;;;;;;;28.73;16.10;;;8.10;99.90;;;;;;4400263;28;655465;-72
2023/03/09 08:32:26;;;;;;;24.97;14.23;;;8.20;99.90;;;;;;4376197;28;655693;-72
2023/03/09 08:35:13;;;;;;;27.87;15.47;;;8.20;99.90;;;;;;4395819;28;655976;-71
2023/03/09 08:38:02;;;;;;;20.30;12.07;;;8.10;99.90;;;;;;4376429;28;656686;-72
2023/03/09 08:40:49;;;;;;;20.20;11.13;;;8.10;99.90;;;;;;4399169;28;655249;-72
2023/03/09 08:43:36;;;;;;;18.60;10.93;;;8.20;99.90;;;;;;4377385;28;655754;-72
2023/03/09 08:46:23;;;;;;;17.67;10.53;;;8.30;99.90;;;;;;4389998;28;656015;-71
2023/03/09 08:49:11;;;;;;;17.17;9.43;;;8.20;99.90;;;;;;4373844;28;655675;-72
2023/03/09 08:51:58;;;;;;;20.97;8.40;;;8.20;99.90;;;;;;4403248;28;654306;-71
2023/03/09 08:54:47;;;;;;;9.27;6.20;;;8.20;99.90;;;;;;4375304;28;654548;-70
2023/03/09 08:57:34;;;;;;;16.83;7.20;;;8.10;99.90;;;;;;4393939;28;653272;-70
2023/03/09 09:00:22;;;;;;;13.93;8.77;;;7.90;99.90;;;;;;4381984;28;654531;-71
2023/03/09 09:03:10;;;;;;;20.50;11.10;;;7.80;99.90;;;;;;4384381;28;654203;-71
2023/03/09 09:05:57;;;;;;;19.53;10.97;;;8.00;99.90;;;;;;4397574;28;655624;-72
2023/03/09 09:08:45;;;;;;;13.70;8.40;;;8.10;99.90;;;;;;4405418;28;655137;-72
2023/03/09 09:11:34;;;;;;;11.33;6.63;;;8.10;99.90;;;;;;4399860;28;654308;-72
2023/03/09 09:14:22;;;;;;;20.00;11.03;;;8.30;99.90;;;;;;4377123;28;654380;-72
2023/03/09 09:17:11;;;;;;;20.07;10.97;;;8.30;99.90;;;;;;4394891;28;655430;-72
2023/03/09 09:19:58;;;;;;;20.17;11.48;;;8.40;99.90;;;;;;4373089;28;656281;-72
2023/03/09 09:22:45;;;;;;;20.40;11.77;;;8.30;99.90;;;;;;4370745;28;655925;-72
2023/03/09 09:25:33;;;;;;;25.67;12.87;;;8.40;99.90;;;;;;4394794;28;656072;-72
2023/03/09 09:28:22;;;;;;;19.23;12.07;;;8.50;99.90;;;;;;4394660;28;656338;-72
2023/03/09 09:31:12;;;;;;;24.70;12.03;;;8.50;99.90;;;;;;4394068;28;655975;-71
2023/03/09 09:33:59;;;;;;;20.37;11.73;;;8.50;99.90;;;;;;4379082;28;655688;-72
2023/03/09 09:36:46;;;;;;;17.40;9.80;;;8.40;99.90;;;;;;4368060;28;656008;-72
2023/03/09 09:39:34;;;;;;;15.93;9.40;;;8.40;99.90;;;;;;4391413;28;654171;-72
2023/03/09 09:42:23;;;;;;;17.43;8.57;;;8.40;99.90;;;;;;4275950;28;654551;-72
2023/03/09 09:45:25;;;;;;;15.43;9.57;;;8.30;99.90;;;;;;4205741;28;654636;-71
2023/03/09 09:48:15;;;;;;;17.20;9.60;;;8.20;99.90;;;;;;4223985;28;656378;-71
2023/03/09 09:51:10;;;;;;;13.80;8.30;;;8.20;99.90;;;;;;4381186;28;656214;-71
2023/03/09 09:54:00;;;;;;;16.00;10.07;;;8.10;99.90;;;;;;4367868;28;655407;-71
2023/03/09 09:56:48;;;;;;;20.87;11.03;;;8.10;99.90;;;;;;4386576;28;657059;-70
2023/03/09 09:59:41;;;;;;;20.73;10.60;;;8.00;99.90;;;;;;4385758;28;655550;-71
2023/03/09 10:02:48;;;;;;;19.97;11.67;;;7.90;99.90;;;;;;4386044;28;656407;-70
2023/03/09 10:05:38;;;;;;;21.73;11.43;;;7.90;99.90;;;;;;4386699;28;656140;-70
2023/03/09 10:08:29;;;;;;;17.63;9.63;;;7.90;99.90;;;;;;4393803;28;655589;-70
2023/03/09 10:11:21;;;;;;;19.73;11.53;;;7.90;99.90;;;;;;4390828;28;654766;-71
2023/03/09 10:14:10;;;;;;;12.80;7.67;;;7.90;99.90;;;;;;4388545;28;656133;-72
2023/03/09 10:16:59;;;;;;;14.85;8.88;;;7.90;99.90;;;;;;4395724;28;655140;-72
2023/03/09 10:19:48;;;;;;;16.57;9.67;;;8.10;99.90;;;;;;4383939;28;654397;-71
2023/03/09 10:22:35;;;;;;;17.53;10.30;;;8.20;99.90;;;;;;4395134;28;655093;-72
2023/03/09 10:25:23;;;;;;;15.70;10.70;;;8.30;99.90;;;;;;4407236;28;657305;-72
2023/03/09 10:28:13;;;;;;;13.63;8.83;;;8.30;99.90;;;;;;4403978;28;655228;-71
2023/03/09 10:31:02;;;;;;;19.15;12.15;;;8.30;99.90;;;;;;4394098;28;654500;-72
2023/03/09 10:33:53;;;;;;;20.60;12.57;;;8.40;99.90;;;;;;4416319;28;656055;-71
2023/03/09 10:36:44;;;;;;;17.80;11.80;;;8.40;99.90;;;;;;4371353;28;655525;-72
2023/03/09 10:39:35;;;;;;;22.13;14.90;;;8.60;99.90;;;;;;4386072;28;655698;-73
2023/03/09 10:42:23;;;;;;;22.23;13.50;;;8.50;99.90;;;;;;4388360;28;656264;-72
2023/03/09 10:45:19;;;;;;;24.30;15.52;;;8.60;99.90;;;;;;4400845;28;655599;-72
2023/03/09 10:48:07;;;;;;;21.60;13.87;;;8.80;99.90;;;;;;4393220;28;657146;-71
2023/03/09 10:50:59;;;;;;;17.23;11.27;;;8.80;99.90;;;;;;4415486;28;654571;-74
2023/03/09 10:53:48;;;;;;;22.77;13.30;;;8.80;99.90;;;;;;4393423;28;655569;-72
2023/03/09 10:56:35;;;;;;;17.87;11.67;;;8.80;99.90;;;;;;4390527;28;655653;-73
2023/03/09 10:59:23;;;;;;;21.47;13.20;;;8.80;99.90;;;;;;4410203;28;656127;-73
2023/03/09 11:02:27;;;;;;;18.47;10.93;;;8.80;99.90;;;;;;4398204;28;655909;-71
2023/03/09 11:05:18;;;;;;;17.93;12.00;;;8.90;99.90;;;;;;4386258;28;655997;-72
2023/03/09 11:08:10;;;;;;;17.87;9.60;;;8.90;99.90;;;;;;4373193;28;655481;-72
2023/03/09 11:11:06;;;;;;;19.03;9.43;;;8.80;99.90;;;;;;4390805;28;654959;-73
2023/03/09 11:13:53;;;;;;;12.40;7.50;;;8.80;99.90;;;;;;4390893;28;656657;-71
2023/03/09 11:16:42;;;;;;;11.17;7.37;;;8.60;99.90;;;;;;4385881;28;654706;-71
2023/03/09 11:19:30;;;;;;;8.87;5.73;;;8.60;99.90;;;;;;4409537;28;654957;-73
2023/03/09 11:22:17;;;;;;;12.77;6.93;;;8.60;99.90;;;;;;4388817;28;655067;-72
2023/03/09 11:25:05;;;;;;;12.90;7.70;;;8.60;99.90;;;;;;4411179;28;654144;-71
2023/03/09 11:27:56;;;;;;;12.37;8.97;;;8.50;99.90;;;;;;4387328;28;655714;-72
2023/03/09 11:30:44;;;;;;;13.07;7.83;;;8.40;99.90;;;;;;4386184;28;654772;-72
2023/03/09 11:33:31;;;;;;;14.80;9.43;;;8.40;99.90;;;;;;4387168;28;655141;-71
2023/03/09 11:36:20;;;;;;;14.27;7.87;;;8.30;99.90;;;;;;4416454;28;654493;-72
2023/03/09 11:39:14;;;;;;;10.80;7.13;;;8.30;99.90;;;;;;4381697;28;655807;-71
2023/03/09 11:42:02;;;;;;;11.37;7.30;;;8.30;99.90;;;;;;4393967;28;654933;-71
2023/03/09 11:44:51;;;;;;;12.13;7.27;;;8.30;99.90;;;;;;4407082;28;654447;-71
2023/03/09 11:47:39;;;;;;;11.97;6.47;;;8.20;99.90;;;;;;4385321;28;654947;-72
2023/03/09 11:50:28;;;;;;;13.27;7.47;;;8.10;99.90;;;;;;4394466;28;654656;-71
2023/03/09 11:53:18;;;;;;;12.93;6.53;;;8.10;99.90;;;;;;4391712;28;655282;-71
2023/03/09 11:56:18;;;;;;;9.37;5.17;;;8.20;99.90;;;;;;4403681;28;654699;-71
2023/03/09 11:59:08;;;;;;;14.27;7.47;;;8.20;99.90;;;;;;4368238;28;653223;-71
2023/03/09 12:01:58;;;;;;;12.17;7.63;;;8.20;99.90;;;;;;4389457;28;654537;-71
2023/03/09 12:04:47;;;;;;;16.20;8.30;;;8.30;99.90;;;;;;4388848;28;654900;-71
2023/03/09 12:07:37;;;;;;;17.50;9.13;;;8.20;99.90;;;;;;4407347;28;655052;-72
2023/03/09 12:10:26;;;;;;;15.30;10.40;;;8.30;99.90;;;;;;4410573;28;654269;-71
2023/03/09 12:13:15;;;;;;;19.73;12.27;;;8.20;99.90;;;;;;4389818;28;655904;-73
2023/03/09 12:16:04;;;;;;;19.80;11.73;;;8.20;99.90;;;;;;4388443;28;655977;-72
2023/03/09 12:18:59;;;;;;;15.43;8.93;;;8.20;99.90;;;;;;4387774;28;655927;-72
2023/03/09 12:21:49;;;;;;;21.47;11.23;;;8.10;99.90;;;;;;4392846;28;654557;-71
2023/03/09 12:24:39;;;;;;;15.17;8.70;;;8.10;99.90;;;;;;4387438;28;655605;-72
2023/03/09 12:27:26;;;;;;;12.97;7.07;;;8.10;99.90;;;;;;4392826;28;654824;-71
2023/03/09 12:30:24;;;;;;;12.80;7.73;;;8.10;99.90;;;;;;4412049;28;654249;-71
2023/03/09 12:33:11;;;;;;;10.93;6.97;;;8.00;99.90;;;;;;4371356;28;654225;-72
2023/03/09 12:36:01;;;;;;;15.45;8.48;;;8.00;99.90;;;;;;4414472;28;655725;-71
2023/03/09 12:38:48;;;;;;;12.77;8.23;;;8.00;99.90;;;;;;4391609;28;655377;-72
2023/03/09 12:41:56;;;;;;;15.03;8.97;;;8.00;99.90;;;;;;4389389;28;654312;-72
2023/03/09 12:45:21;;;;;;;12.37;7.87;;;7.90;99.90;;;;;;4388393;28;655292;-72
2023/03/09 12:48:22;;;;;;;12.07;7.33;;;8.00;99.90;;;;;;4384708;28;654608;-71
2023/03/09 12:51:12;;;;;;;18.47;9.10;;;8.00;99.90;;;;;;4387592;28;654572;-72
2023/03/09 12:53:59;;;;;;;17.03;8.87;;;7.90;99.90;;;;;;4383990;28;654825;-72
2023/03/09 12:56:46;;;;;;;15.23;9.52;;;7.90;99.90;;;;;;4389097;28;654444;-72
2023/03/09 12:59:33;;;;;;;19.27;9.63;;;8.00;99.90;;;;;;4414703;28;654671;-72
2023/03/09 13:02:26;;;;;;;16.07;8.63;;;8.00;99.90;;;;;;4387898;28;654649;-72
2023/03/09 13:05:22;;;;;;;14.60;6.83;;;7.90;99.90;;;;;;4382235;28;654952;-72
2023/03/09 13:08:26;;;;;;;14.90;9.98;;;7.90;99.90;;;;;;4385585;28;655192;-72
2023/03/09 13:11:37;;;;;;;18.10;10.40;;;8.00;99.90;;;;;;4386396;28;655343;-73
2023/03/09 13:15:11;;;;;;;15.77;9.00;;;8.00;99.90;;;;;;4399847;28;655540;-75
2023/03/09 13:18:23;;;;;;;18.53;10.03;;;8.00;99.90;;;;;;4345107;28;655001;-72
2023/03/09 13:21:41;;;;;;;17.87;10.50;;;8.10;99.90;;;;;;4394193;28;655816;-72
2023/03/09 13:24:34;;;;;;;15.30;8.93;;;8.10;99.90;;;;;;4384607;28;656299;-72
2023/03/09 13:27:23;;;;;;;18.70;10.70;;;8.20;99.90;;;;;;4385665;28;654462;-72
2023/03/09 13:30:18;;;;;;;19.50;10.23;;;8.30;99.90;;;;;;4385140;28;655799;-72
2023/03/09 13:33:07;;;;;;;16.50;9.07;;;8.30;99.90;;;;;;4367593;28;655114;-71
2023/03/09 13:35:56;;;;;;;12.80;7.53;;;8.30;99.90;;;;;;4415600;28;653970;-72
2023/03/09 13:38:46;;;;;;;13.27;8.10;;;8.40;99.90;;;;;;4382412;28;654448;-72
2023/03/09 13:41:34;;;;;;;12.40;7.53;;;8.40;99.90;;;;;;4391726;28;655022;-72
2023/03/09 13:44:23;;;;;;;14.27;8.17;;;8.40;99.90;;;;;;4390021;28;654653;-73
2023/03/09 13:47:18;;;;;;;11.87;6.83;;;8.40;99.90;;;;;;4396042;28;654343;-74
2023/03/09 13:50:06;;;;;;;11.50;7.13;;;8.40;99.90;;;;;;4388497;28;654436;-72
2023/03/09 13:52:59;;;;;;;8.83;5.37;;;8.40;99.90;;;;;;4411135;28;654927;-72
2023/03/09 13:55:54;;;;;;;12.40;7.80;;;8.40;99.90;;;;;;4390023;28;653325;-73
2023/03/09 13:58:43;;;;;;;14.40;7.73;;;8.40;99.90;;;;;;4389483;28;654602;-72
2023/03/09 14:01:31;;;;;;;18.47;11.20;;;8.40;99.90;;;;;;4385970;28;654315;-72
2023/03/09 14:04:18;;;;;;;21.03;12.80;;;8.30;99.90;;;;;;4422060;28;656227;-72
2023/03/09 14:07:05;;;;;;;19.47;12.83;;;8.00;99.90;;;;;;4387807;28;656033;-72
2023/03/09 14:09:55;;;;;;;16.13;10.00;;;8.00;99.90;;;;;;4407646;28;656819;-72
2023/03/09 14:12:42;;;;;;;18.27;10.00;;;8.00;99.90;;;;;;4383272;28;657421;-72
2023/03/09 14:15:31;;;;;;;17.00;10.23;;;8.00;99.90;;;;;;4408283;28;655812;-72
2023/03/09 14:18:23;;;;;;;18.37;10.60;;;8.20;99.90;;;;;;4386933;28;655903;-72
2023/03/09 14:21:19;;;;;;;15.43;8.17;;;9.00;99.90;;;;;;4364796;28;655365;-73
2023/03/09 14:24:14;;;;;;;13.60;8.00;;;9.20;99.90;;;;;;4384330;28;654515;-71